Time;durP1;ratioP1;P1;durP2;ratioP2;P2;SDS_P1;SDS_P2;PMS_P1;PMS_P2;Temp;Humidity;BMP_temperature;BMP_pressure;BME280_temperature;BME280_humidity;BME280_pressure;Samples;Min_cycle;Max_cycle;Signal;HPM_P1;HPM_P2
2023/03/20 00:01:23;;;;;;;15.52;7.20;;;;;;;;;;6282155;22;20315;-83
2023/03/20 00:03:50;;;;;;;21.33;8.00;;;;;;;;;;6281398;22;20016;-83
2023/03/20 00:06:17;;;;;;;18.58;7.57;;;;;;;;;;6281397;22;20028;-85
2023/03/20 00:08:44;;;;;;;19.63;8.48;;;;;;;;;;6281156;22;20343;-86
2023/03/20 00:11:25;;;;;;;21.25;8.07;;;;;;;;;;6278610;22;20452;-83
2023/03/20 00:13:52;;;;;;;20.20;7.95;;;;;;;;;;6251975;22;20300;-83
2023/03/20 00:16:19;;;;;;;18.70;8.35;;;;;;;;;;6278997;22;20035;-84
2023/03/20 00:18:45;;;;;;;25.70;9.75;;;;;;;;;;6279645;22;20853;-82
2023/03/20 00:21:18;;;;;;;20.75;8.95;;;;;;;;;;6281306;22;20433;-85
2023/03/20 00:23:44;;;;;;;19.20;8.93;;;;;;;;;;6276320;22;20075;-84
2023/03/20 00:26:15;;;;;;;21.08;9.27;;;;;;;;;;6249500;22;20028;-83
2023/03/20 00:28:43;;;;;;;24.25;9.70;;;;;;;;;;6277130;22;20024;-85
2023/03/20 00:31:29;;;;;;;21.95;10.00;;;;;;;;;;6277619;22;20854;-85
2023/03/20 00:33:56;;;;;;;21.88;9.10;;;;;;;;;;6276957;22;20016;-83
2023/03/20 00:36:23;;;;;;;25.38;10.25;;;;;;;;;;6249030;22;20078;-86
2023/03/20 00:38:50;;;;;;;26.88;10.60;;;;;;;;;;6277073;22;20664;-85
2023/03/20 00:41:19;;;;;;;29.42;10.98;;;;;;;;;;6276900;22;20024;-83
2023/03/20 00:43:51;;;;;;;27.23;10.30;;;;;;;;;;6275976;22;20032;-84
2023/03/20 00:46:18;;;;;;;26.95;9.98;;;;;;;;;;6277832;22;20035;-86
2023/03/20 00:48:45;;;;;;;26.00;10.48;;;;;;;;;;6275663;22;20804;-85
2023/03/20 00:51:12;;;;;;;21.13;9.48;;;;;;;;;;6277424;22;20028;-84
2023/03/20 00:53:38;;;;;;;20.60;8.38;;;;;;;;;;6250593;22;20024;-87
2023/03/20 00:56:05;;;;;;;23.67;9.05;;;;;;;;;;6248744;22;20442;-83
2023/03/20 00:58:31;;;;;;;20.50;8.52;;;;;;;;;;6278288;22;20102;-86
2023/03/20 01:00:58;;;;;;;24.88;9.38;;;;;;;;;;6277367;22;20505;-85
2023/03/20 01:03:25;;;;;;;26.92;8.52;;;;;;;;;;6249753;22;20024;-84
2023/03/20 01:05:51;;;;;;;19.92;7.82;;;;;;;;;;6277055;22;20036;-85
2023/03/20 01:08:19;;;;;;;17.17;7.85;;;;;;;;;;6276850;22;20585;-84
2023/03/20 01:10:48;;;;;;;22.70;7.25;;;;;;;;;;6276447;22;20966;-85
2023/03/20 01:13:17;;;;;;;17.88;7.43;;;;;;;;;;6274228;22;20020;-86
2023/03/20 01:15:44;;;;;;;21.65;6.80;;;;;;;;;;6277142;22;20524;-86
2023/03/20 01:18:12;;;;;;;18.02;6.50;;;;;;;;;;6250549;22;20028;-83
2023/03/20 01:20:38;;;;;;;16.63;6.72;;;;;;;;;;6278791;22;20111;-87
2023/03/20 01:23:05;;;;;;;18.30;6.43;;;;;;;;;;6277153;22;20035;-82
2023/03/20 01:25:31;;;;;;;12.10;5.10;;;;;;;;;;6276263;22;20884;-84
2023/03/20 01:27:57;;;;;;;15.30;5.45;;;;;;;;;;6278952;22;20020;-85
2023/03/20 01:30:29;;;;;;;18.05;6.40;;;;;;;;;;6276241;22;20150;-85
2023/03/20 01:32:56;;;;;;;16.08;5.32;;;;;;;;;;6273260;22;20035;-84
2023/03/20 01:35:31;;;;;;;13.88;4.93;;;;;;;;;;6272685;22;20044;-86
2023/03/20 01:37:57;;;;;;;12.10;5.22;;;;;;;;;;6273851;22;20059;-84
2023/03/20 01:40:31;;;;;;;11.95;5.00;;;;;;;;;;6275332;22;20026;-84
2023/03/20 01:42:57;;;;;;;10.77;4.55;;;;;;;;;;6250048;22;20913;-85
2023/03/20 01:45:27;;;;;;;15.88;5.47;;;;;;;;;;6277422;22;20071;-85
2023/03/20 01:47:53;;;;;;;14.02;4.90;;;;;;;;;;6275585;22;20031;-85
2023/03/20 01:50:23;;;;;;;13.02;5.10;;;;;;;;;;6273264;22;20024;-84
2023/03/20 01:52:51;;;;;;;13.85;4.80;;;;;;;;;;6243569;22;20031;-86
2023/03/20 01:55:18;;;;;;;12.77;4.70;;;;;;;;;;6271653;22;20046;-87
2023/03/20 01:57:44;;;;;;;18.05;5.13;;;;;;;;;;6281972;22;20027;-83
2023/03/20 02:00:14;;;;;;;11.65;4.35;;;;;;;;;;6279337;22;20024;-83
2023/03/20 02:02:42;;;;;;;11.80;4.10;;;;;;;;;;6252885;22;20016;-83
2023/03/20 02:05:10;;;;;;;13.68;4.30;;;;;;;;;;6281167;22;20019;-85
2023/03/20 02:07:38;;;;;;;9.30;4.15;;;;;;;;;;6254494;22;20020;-84
2023/03/20 02:10:07;;;;;;;9.95;4.35;;;;;;;;;;6281199;22;20030;-85
2023/03/20 02:12:34;;;;;;;11.05;4.38;;;;;;;;;;6283949;22;20016;-84
2023/03/20 02:15:01;;;;;;;13.48;4.22;;;;;;;;;;6254435;22;20023;-84
2023/03/20 02:17:27;;;;;;;10.73;4.35;;;;;;;;;;6284509;22;21000;-83
2023/03/20 02:19:59;;;;;;;12.82;3.85;;;;;;;;;;6283995;22;20032;-84
2023/03/20 02:22:25;;;;;;;10.70;4.32;;;;;;;;;;6284803;22;20720;-84
2023/03/20 02:24:52;;;;;;;11.90;4.35;;;;;;;;;;6281509;22;20448;-82
2023/03/20 02:27:37;;;;;;;8.85;3.97;;;;;;;;;;6282911;22;20723;-86
2023/03/20 02:30:10;;;;;;;14.68;4.53;;;;;;;;;;6284144;22;20027;-86
2023/03/20 02:32:49;;;;;;;13.73;4.22;;;;;;;;;;6285784;22;20028;-86
2023/03/20 02:35:34;;;;;;;14.07;4.32;;;;;;;;;;6282777;22;20168;-83
2023/03/20 02:38:00;;;;;;;14.40;4.72;;;;;;;;;;6281138;22;20831;-84
2023/03/20 02:40:30;;;;;;;14.05;4.45;;;;;;;;;;6257150;22;20016;-82
2023/03/20 02:43:23;;;;;;;12.30;5.00;;;;;;;;;;6283369;22;20079;-84
2023/03/20 02:45:53;;;;;;;18.45;5.85;;;;;;;;;;6244354;22;20059;-83
2023/03/20 02:48:19;;;;;;;14.20;5.30;;;;;;;;;;6280644;22;21047;-84
2023/03/20 02:50:55;;;;;;;19.90;6.97;;;;;;;;;;6279866;22;20711;-83
2023/03/20 02:53:27;;;;;;;18.90;6.00;;;;;;;;;;6282366;22;20024;-83
2023/03/20 02:55:59;;;;;;;15.68;5.88;;;;;;;;;;6278665;22;20079;-83
2023/03/20 02:58:29;;;;;;;17.83;6.82;;;;;;;;;;6280896;22;20015;-84
2023/03/20 03:01:10;;;;;;;19.30;7.30;;;;;;;;;;6280515;22;20040;-84
2023/03/20 03:03:42;;;;;;;16.00;6.93;;;;;;;;;;6278138;22;20020;-85
2023/03/20 03:06:11;;;;;;;21.55;7.57;;;;;;;;;;6278911;22;20122;-86
2023/03/20 03:08:41;;;;;;;17.58;7.60;;;;;;;;;;6278721;22;20028;-87
2023/03/20 03:11:08;;;;;;;22.70;9.93;;;;;;;;;;6281203;22;20028;-84
2023/03/20 03:13:45;;;;;;;23.33;8.77;;;;;;;;;;6280148;22;20027;-83
2023/03/20 03:16:18;;;;;;;21.10;9.07;;;;;;;;;;6279660;22;20028;-87
2023/03/20 03:18:45;;;;;;;24.83;10.45;;;;;;;;;;6278643;22;20056;-86
2023/03/20 03:21:14;;;;;;;23.65;9.88;;;;;;;;;;6280223;22;20016;-83
2023/03/20 03:23:45;;;;;;;25.27;9.60;;;;;;;;;;6277651;22;20024;-86
2023/03/20 03:26:19;;;;;;;25.65;9.68;;;;;;;;;;6277529;22;20028;-85
2023/03/20 03:28:48;;;;;;;22.45;9.52;;;;;;;;;;6281521;22;20032;-85
2023/03/20 03:31:16;;;;;;;26.15;9.85;;;;;;;;;;6279253;22;20038;-86
2023/03/20 03:33:47;;;;;;;22.63;10.02;;;;;;;;;;6302788;22;20104;-86
2023/03/20 03:36:26;;;;;;;27.40;9.60;;;;;;;;;;6276064;22;20020;-82
2023/03/20 03:38:52;;;;;;;25.77;10.27;;;;;;;;;;6279910;22;20215;-83
2023/03/20 03:41:19;;;;;;;25.23;9.65;;;;;;;;;;6279563;22;20024;-86
2023/03/20 03:43:53;;;;;;;21.17;9.07;;;;;;;;;;6277042;22;20032;-87
2023/03/20 03:46:25;;;;;;;22.48;9.38;;;;;;;;;;6278584;22;20035;-85
2023/03/20 03:48:54;;;;;;;26.83;9.80;;;;;;;;;;6279937;22;20012;-86
2023/03/20 03:51:22;;;;;;;22.65;9.65;;;;;;;;;;6280356;22;20035;-84
2023/03/20 03:53:53;;;;;;;26.67;10.02;;;;;;;;;;6280431;22;20058;-84
2023/03/20 03:56:22;;;;;;;26.35;9.95;;;;;;;;;;6251217;22;20031;-84
2023/03/20 03:58:51;;;;;;;25.08;9.77;;;;;;;;;;6280606;22;20043;-83
2023/03/20 04:01:19;;;;;;;27.88;10.38;;;;;;;;;;6280037;22;20039;-86
2023/03/20 04:03:48;;;;;;;23.20;9.45;;;;;;;;;;6253038;22;20016;-83
2023/03/20 04:06:15;;;;;;;25.23;10.18;;;;;;;;;;6280426;22;20083;-86
2023/03/20 04:08:42;;;;;;;26.98;10.10;;;;;;;;;;6250810;22;20029;-85
2023/03/20 04:11:15;;;;;;;24.92;10.35;;;;;;;;;;6278229;22;20244;-85
2023/03/20 04:13:42;;;;;;;24.45;9.75;;;;;;;;;;6277484;22;20130;-85
2023/03/20 04:16:12;;;;;;;28.67;10.73;;;;;;;;;;6277453;22;20212;-82
2023/03/20 04:18:39;;;;;;;;;;;;;;;;;;6280824;22;20024;-86
2023/03/20 04:21:06;;;;;;;21.70;9.27;;;;;;;;;;6278798;22;45026;-86
2023/03/20 04:23:32;;;;;;;32.42;10.63;;;;;;;;;;6253827;22;20367;-86
2023/03/20 04:25:59;;;;;;;27.90;9.95;;;;;;;;;;6278835;22;20017;-87
2023/03/20 04:28:25;;;;;;;29.02;10.45;;;;;;;;;;6281268;22;20469;-85
2023/03/20 04:30:55;;;;;;;28.60;10.65;;;;;;;;;;6281676;22;20063;-86
2023/03/20 04:33:21;;;;;;;25.83;10.23;;;;;;;;;;6250982;22;20076;-84
2023/03/20 04:35:48;;;;;;;28.38;11.35;;;;;;;;;;6278690;22;20020;-86
2023/03/20 04:38:15;;;;;;;26.92;10.95;;;;;;;;;;6280670;22;20027;-85
2023/03/20 04:40:42;;;;;;;26.27;11.05;;;;;;;;;;6251719;22;20031;-82
2023/03/20 04:43:09;;;;;;;26.50;11.13;;;;;;;;;;6276626;22;20103;-87
2023/03/20 04:45:35;;;;;;;26.05;11.60;;;;;;;;;;6279729;22;20016;-85
2023/03/20 04:48:02;;;;;;;31.08;12.15;;;;;;;;;;6279700;22;20024;-84
2023/03/20 04:50:28;;;;;;;32.15;11.48;;;;;;;;;;6279859;22;20028;-86
2023/03/20 04:52:55;;;;;;;29.17;11.98;;;;;;;;;;6278359;22;20016;-87
2023/03/20 04:55:21;;;;;;;27.83;12.05;;;;;;;;;;6276935;22;20028;-84
2023/03/20 04:57:48;;;;;;;27.27;11.77;;;;;;;;;;6275683;22;20027;-85
2023/03/20 05:00:15;;;;;;;27.30;12.63;;;;;;;;;;6277540;22;20017;-86
2023/03/20 05:02:41;;;;;;;30.55;11.50;;;;;;;;;;6249925;22;20046;-88
2023/03/20 05:05:08;;;;;;;30.08;12.00;;;;;;;;;;6277739;22;20038;-86
2023/03/20 05:07:34;;;;;;;26.92;12.00;;;;;;;;;;6278192;22;20059;-85
2023/03/20 05:10:01;;;;;;;25.52;12.38;;;;;;;;;;6276555;22;20031;-83
2023/03/20 05:12:28;;;;;;;29.48;11.98;;;;;;;;;;6278442;22;20038;-83
2023/03/20 05:14:54;;;;;;;25.48;12.10;;;;;;;;;;6279312;22;20812;-84
2023/03/20 05:17:23;;;;;;;28.88;12.82;;;;;;;;;;6251879;22;20016;-85
2023/03/20 05:19:49;;;;;;;27.40;11.95;;;;;;;;;;6278388;22;20026;-86
2023/03/20 05:22:16;;;;;;;29.77;13.10;;;;;;;;;;6278392;22;20052;-84
2023/03/20 05:24:42;;;;;;;29.67;11.63;;;;;;;;;;6276877;22;20016;-83
2023/03/20 05:27:09;;;;;;;27.27;13.48;;;;;;;;;;6277776;22;20024;-87
2023/03/20 05:29:35;;;;;;;24.70;12.32;;;;;;;;;;6279585;22;20024;-85
2023/03/20 05:32:02;;;;;;;28.40;12.18;;;;;;;;;;6277429;22;20032;-84
2023/03/20 05:34:29;;;;;;;26.23;11.48;;;;;;;;;;6277588;22;20036;-85
2023/03/20 05:36:55;;;;;;;24.67;12.32;;;;;;;;;;6277723;22;20788;-87
2023/03/20 05:39:21;;;;;;;30.50;13.18;;;;;;;;;;6277842;22;20036;-87
2023/03/20 05:41:48;;;;;;;26.42;11.77;;;;;;;;;;6250221;22;20023;-87
2023/03/20 05:44:14;;;;;;;26.70;12.13;;;;;;;;;;6276081;22;20034;-86
2023/03/20 05:46:41;;;;;;;25.60;11.95;;;;;;;;;;6250971;22;20024;-86
2023/03/20 05:49:07;;;;;;;28.55;12.93;;;;;;;;;;6278561;22;20031;-82
2023/03/20 05:51:34;;;;;;;21.25;11.02;;;;;;;;;;6276373;22;20043;-85
2023/03/20 05:54:00;;;;;;;24.00;12.02;;;;;;;;;;6276612;22;20020;-86
2023/03/20 05:56:27;;;;;;;25.05;12.68;;;;;;;;;;6276691;22;20047;-84
2023/03/20 05:58:53;;;;;;;24.27;11.50;;;;;;;;;;6252277;22;20547;-85
2023/03/20 06:01:20;;;;;;;29.55;12.25;;;;;;;;;;6279962;22;20020;-83
2023/03/20 06:03:47;;;;;;;21.70;11.60;;;;;;;;;;6243713;22;20047;-86
2023/03/20 06:06:14;;;;;;;24.98;11.60;;;;;;;;;;6247337;22;20063;-83
2023/03/20 06:08:41;;;;;;;25.63;11.43;;;;;;;;;;6274161;22;20530;-86
2023/03/20 06:11:08;;;;;;;26.13;11.60;;;;;;;;;;6269887;22;20490;-85
2023/03/20 06:13:34;;;;;;;26.08;11.60;;;;;;;;;;6267974;22;20508;-83
2023/03/20 06:16:00;;;;;;;21.50;11.55;;;;;;;;;;6270268;22;20027;-86
2023/03/20 06:18:27;;;;;;;28.13;11.68;;;;;;;;;;6268656;22;20040;-85
2023/03/20 06:20:55;;;;;;;25.58;11.57;;;;;;;;;;6271396;22;20131;-83
2023/03/20 06:23:21;;;;;;;25.00;11.57;;;;;;;;;;6271298;22;20090;-84
2023/03/20 06:25:48;;;;;;;25.85;11.63;;;;;;;;;;6271512;22;20431;-87
2023/03/20 06:28:15;;;;;;;23.27;11.38;;;;;;;;;;6270105;22;20024;-83
2023/03/20 06:30:42;;;;;;;26.60;11.57;;;;;;;;;;6265554;22;20107;-85
2023/03/20 06:33:08;;;;;;;24.00;11.88;;;;;;;;;;6267413;22;20095;-83
2023/03/20 06:35:35;;;;;;;23.88;11.55;;;;;;;;;;6267691;22;20038;-83
2023/03/20 06:38:02;;;;;;;21.50;11.30;;;;;;;;;;6267235;22;20032;-85
2023/03/20 06:40:28;;;;;;;23.23;11.85;;;;;;;;;;6267348;22;20024;-86
2023/03/20 06:42:55;;;;;;;24.83;10.70;;;;;;;;;;6238524;22;20062;-84
2023/03/20 06:45:22;;;;;;;28.10;12.23;;;;;;;;;;6247974;22;20035;-85
2023/03/20 06:47:53;;;;;;;20.48;10.68;;;;;;;;;;6268048;22;20059;-86
2023/03/20 06:50:19;;;;;;;20.88;10.50;;;;;;;;;;6276857;22;20013;-85
2023/03/20 06:52:47;;;;;;;24.88;11.27;;;;;;;;;;6273106;22;21028;-85
2023/03/20 06:55:13;;;;;;;24.27;11.20;;;;;;;;;;6273019;22;20020;-87
2023/03/20 06:57:40;;;;;;;30.63;11.38;;;;;;;;;;6270509;22;20028;-86
2023/03/20 07:00:07;;;;;;;22.13;10.45;;;;;;;;;;6268526;22;20508;-86
2023/03/20 07:02:33;;;;;;;22.67;11.35;;;;;;;;;;6269937;22;20024;-84
2023/03/20 07:04:59;;;;;;;25.55;10.90;;;;;;;;;;6269538;22;20035;-84
2023/03/20 07:07:26;;;;;;;24.58;10.90;;;;;;;;;;6269630;22;20107;-87
2023/03/20 07:09:52;;;;;;;23.48;11.18;;;;;;;;;;6270431;22;20024;-87
2023/03/20 07:12:19;;;;;;;25.10;11.48;;;;;;;;;;6272381;22;20047;-85
2023/03/20 07:14:45;;;;;;;22.88;10.35;;;;;;;;;;6270500;22;20063;-85
2023/03/20 07:17:12;;;;;;;25.00;10.48;;;;;;;;;;6269904;22;20028;-84
2023/03/20 07:19:38;;;;;;;21.60;9.75;;;;;;;;;;6272011;22;20059;-86
2023/03/20 07:22:06;;;;;;;20.98;10.82;;;;;;;;;;6269388;22;20675;-86
2023/03/20 07:24:33;;;;;;;23.25;9.95;;;;;;;;;;6266328;22;20114;-85
2023/03/20 07:27:00;;;;;;;22.45;10.73;;;;;;;;;;6268258;22;20551;-87
2023/03/20 07:29:26;;;;;;;21.55;10.40;;;;;;;;;;6269145;22;20031;-82
2023/03/20 07:31:52;;;;;;;60.30;24.42;;;;;;;;;;6268096;22;20023;-85
2023/03/20 07:34:19;;;;;;;27.20;11.02;;;;;;;;;;6270928;22;20028;-84
2023/03/20 07:36:45;;;;;;;23.40;11.82;;;;;;;;;;6270183;22;20024;-85
2023/03/20 07:39:12;;;;;;;24.73;9.70;;;;;;;;;;6269982;22;20465;-86
2023/03/20 07:41:39;;;;;;;22.48;9.30;;;;;;;;;;6270633;22;20034;-84
2023/03/20 07:44:07;;;;;;;23.80;8.82;;;;;;;;;;6267421;22;20032;-86
2023/03/20 07:46:33;;;;;;;22.52;9.27;;;;;;;;;;6267805;22;20016;-83
2023/03/20 07:48:59;;;;;;;22.98;9.38;;;;;;;;;;6268224;22;20027;-85
2023/03/20 07:51:26;;;;;;;22.00;9.15;;;;;;;;;;6269818;22;20123;-83
2023/03/20 07:53:52;;;;;;;27.63;10.52;;;;;;;;;;6267213;22;20027;-87
2023/03/20 07:56:20;;;;;;;20.77;8.65;;;;;;;;;;6268933;22;20028;-87
2023/03/20 07:58:46;;;;;;;20.00;8.18;;;;;;;;;;6270902;22;20070;-84
2023/03/20 08:01:12;;;;;;;19.52;8.10;;;;;;;;;;6270440;22;20024;-85
2023/03/20 08:03:39;;;;;;;19.52;7.75;;;;;;;;;;6271406;22;20700;-85
2023/03/20 08:06:08;;;;;;;21.75;8.35;;;;;;;;;;6273433;22;20020;-87
2023/03/20 08:08:34;;;;;;;19.40;7.50;;;;;;;;;;6277412;22;20043;-85
2023/03/20 08:11:01;;;;;;;18.20;8.23;;;;;;;;;;6271931;22;20032;-85
2023/03/20 08:13:27;;;;;;;20.05;8.18;;;;;;;;;;6274383;22;20098;-87
2023/03/20 08:15:54;;;;;;;19.98;8.45;;;;;;;;;;6275697;22;20029;-86
2023/03/20 08:18:21;;;;;;;17.40;7.60;;;;;;;;;;6278191;22;20675;-86
2023/03/20 08:20:49;;;;;;;16.48;7.35;;;;;;;;;;6279690;22;20036;-88
2023/03/20 08:23:15;;;;;;;17.90;7.07;;;;;;;;;;6271941;22;20131;-85
2023/03/20 08:25:46;;;;;;;20.30;7.40;;;;;;;;;;6272857;22;20796;-84
2023/03/20 08:28:12;;;;;;;21.55;7.75;;;;;;;;;;6276403;22;20024;-87
2023/03/20 08:30:39;;;;;;;17.00;7.07;;;;;;;;;;6278924;22;20107;-88
2023/03/20 08:33:06;;;;;;;18.40;7.38;;;;;;;;;;6273627;22;20102;-85
2023/03/20 08:35:32;;;;;;;16.98;6.72;;;;;;;;;;6274886;22;20051;-84
2023/03/20 08:38:00;;;;;;;15.55;6.93;;;;;;;;;;6273232;22;20445;-84
2023/03/20 08:40:27;;;;;;;16.45;7.18;;;;;;;;;;6276797;22;20024;-87
2023/03/20 08:42:53;;;;;;;19.58;6.90;;;;;;;;;;6274624;22;20476;-85
2023/03/20 08:45:20;;;;;;;20.05;6.72;;;;;;;;;;6267698;22;20023;-84
2023/03/20 08:47:47;;;;;;;14.85;6.13;;;;;;;;;;6267892;22;20035;-83
2023/03/20 08:50:13;;;;;;;14.82;6.70;;;;;;;;;;6240958;22;20358;-84
2023/03/20 08:52:42;;;;;;;24.15;6.30;;;;;;;;;;6266758;22;20019;-84
2023/03/20 08:55:10;;;;;;;14.05;6.65;;;;;;;;;;6265228;22;20024;-83
2023/03/20 08:57:37;;;;;;;17.42;6.72;;;;;;;;;;6240381;22;20079;-84
2023/03/20 09:00:05;;;;;;;20.60;6.20;;;;;;;;;;6267206;22;20020;-84
2023/03/20 09:02:31;;;;;;;15.23;5.97;;;;;;;;;;6240351;22;20063;-84
2023/03/20 09:04:58;;;;;;;20.88;6.03;;;;;;;;;;6266165;22;20028;-84
2023/03/20 09:07:25;;;;;;;18.15;6.65;;;;;;;;;;6241342;22;20016;-84
2023/03/20 09:09:51;;;;;;;14.65;6.10;;;;;;;;;;6240911;22;20091;-84
2023/03/20 09:12:17;;;;;;;15.68;6.55;;;;;;;;;;6268484;22;20030;-83
2023/03/20 09:14:44;;;;;;;15.32;7.18;;;;;;;;;;6238847;22;20028;-84
2023/03/20 09:17:10;;;;;;;18.63;6.18;;;;;;;;;;6240939;22;20035;-84
2023/03/20 09:19:38;;;;;;;14.88;6.40;;;;;;;;;;6267380;22;20025;-84
2023/03/20 09:22:05;;;;;;;14.07;6.57;;;;;;;;;;6268400;22;20107;-84
2023/03/20 09:24:32;;;;;;;20.20;7.38;;;;;;;;;;6240147;22;20024;-84
2023/03/20 09:26:59;;;;;;;19.80;7.05;;;;;;;;;;6268300;22;20435;-84
2023/03/20 09:29:29;;;;;;;22.03;6.43;;;;;;;;;;6268547;22;20040;-85
2023/03/20 09:31:55;;;;;;;18.50;6.70;;;;;;;;;;6240322;22;20326;-83
2023/03/20 09:34:23;;;;;;;18.38;7.05;;;;;;;;;;6266192;22;20328;-83
2023/03/20 09:36:49;;;;;;;16.75;6.60;;;;;;;;;;6267256;22;20064;-83
2023/03/20 09:39:15;;;;;;;20.77;6.68;;;;;;;;;;6266575;22;20099;-84
2023/03/20 09:41:46;;;;;;;16.08;6.20;;;;;;;;;;6266493;22;20031;-84
2023/03/20 09:44:31;;;;;;;18.00;6.32;;;;;;;;;;6265226;22;20829;-83
2023/03/20 09:47:02;;;;;;;15.68;6.55;;;;;;;;;;6266534;22;20633;-85
2023/03/20 09:49:48;;;;;;;15.55;6.50;;;;;;;;;;6244609;22;20032;-84
2023/03/20 09:52:23;;;;;;;17.35;6.03;;;;;;;;;;6240748;22;20831;-83
2023/03/20 09:54:51;;;;;;;16.30;5.80;;;;;;;;;;6266380;22;20016;-83
2023/03/20 09:57:28;;;;;;;13.80;5.55;;;;;;;;;;6266867;22;20039;-83
2023/03/20 09:59:57;;;;;;;16.25;5.82;;;;;;;;;;6267603;22;20090;-83
2023/03/20 10:02:44;;;;;;;16.38;5.95;;;;;;;;;;6240171;22;20031;-86
2023/03/20 10:05:18;;;;;;;16.50;6.32;;;;;;;;;;6266381;22;20033;-83
2023/03/20 10:07:45;;;;;;;16.00;6.05;;;;;;;;;;6269343;22;20123;-83
2023/03/20 10:10:13;;;;;;;22.55;5.70;;;;;;;;;;6267272;22;20136;-84
2023/03/20 10:13:00;;;;;;;15.25;5.70;;;;;;;;;;6268408;22;20023;-83
2023/03/20 10:15:33;;;;;;;13.13;5.47;;;;;;;;;;6268413;22;20096;-84
2023/03/20 10:18:15;;;;;;;13.95;4.95;;;;;;;;;;6268803;22;20067;-83
2023/03/20 10:21:05;;;;;;;12.48;4.90;;;;;;;;;;6267182;22;20039;-83
2023/03/20 10:23:35;;;;;;;17.00;5.00;;;;;;;;;;6269784;22;20028;-83
2023/03/20 10:26:10;;;;;;;11.15;4.85;;;;;;;;;;6268205;22;20882;-83
2023/03/20 10:28:45;;;;;;;13.23;4.80;;;;;;;;;;6270106;22;20034;-83
2023/03/20 10:31:30;;;;;;;12.07;5.28;;;;;;;;;;6268853;22;20028;-84
2023/03/20 10:34:15;;;;;;;10.85;4.60;;;;;;;;;;6267354;22;20028;-83
2023/03/20 10:37:00;;;;;;;13.18;4.93;;;;;;;;;;6268110;22;20547;-85
2023/03/20 10:39:45;;;;;;;18.15;5.20;;;;;;;;;;6267128;22;20058;-84
2023/03/20 10:42:32;;;;;;;10.95;4.30;;;;;;;;;;6241291;22;20024;-84
2023/03/20 10:45:07;;;;;;;11.77;4.57;;;;;;;;;;6265232;22;20024;-84
2023/03/20 10:47:37;;;;;;;14.57;5.60;;;;;;;;;;6267871;22;20032;-85
2023/03/20 10:50:10;;;;;;;11.45;4.22;;;;;;;;;;6265262;22;20099;-85
2023/03/20 10:52:38;;;;;;;11.60;4.32;;;;;;;;;;6267673;22;20036;-83
2023/03/20 10:55:11;;;;;;;15.55;5.15;;;;;;;;;;6265400;22;20020;-84
2023/03/20 10:57:40;;;;;;;11.75;4.93;;;;;;;;;;6240622;22;20030;-85
2023/03/20 11:00:14;;;;;;;17.50;5.80;;;;;;;;;;6239926;22;20021;-85
2023/03/20 11:02:41;;;;;;;15.13;4.95;;;;;;;;;;6267010;22;20030;-84
2023/03/20 11:05:17;;;;;;;15.77;5.18;;;;;;;;;;6268984;22;20024;-85
2023/03/20 11:07:45;;;;;;;15.23;5.60;;;;;;;;;;6266318;22;20066;-84
2023/03/20 11:10:15;;;;;;;15.80;5.70;;;;;;;;;;6266964;22;20461;-84
2023/03/20 11:12:45;;;;;;;12.35;5.07;;;;;;;;;;6265178;22;20122;-86
2023/03/20 11:15:19;;;;;;;12.75;5.55;;;;;;;;;;6266231;22;20030;-84
2023/03/20 11:18:06;;;;;;;15.02;5.30;;;;;;;;;;6267378;22;20067;-85
2023/03/20 11:20:35;;;;;;;15.25;5.72;;;;;;;;;;6245956;22;20028;-85
2023/03/20 11:23:04;;;;;;;14.68;5.93;;;;;;;;;;6267060;22;20048;-84
2023/03/20 11:25:35;;;;;;;18.48;6.28;;;;;;;;;;6238798;22;20028;-83
2023/03/20 11:28:20;;;;;;;18.13;6.75;;;;;;;;;;6266322;22;20035;-84
2023/03/20 11:30:49;;;;;;;15.43;8.10;;;;;;;;;;6264547;22;20024;-84
2023/03/20 11:33:30;;;;;;;19.50;6.63;;;;;;;;;;6244021;22;20024;-85
2023/03/20 11:35:57;;;;;;;16.38;7.60;;;;;;;;;;6266497;22;20039;-84
2023/03/20 11:38:24;;;;;;;18.65;7.45;;;;;;;;;;6269093;22;20020;-85
2023/03/20 11:40:53;;;;;;;17.95;6.82;;;;;;;;;;6268416;22;20034;-84
2023/03/20 11:43:21;;;;;;;22.08;8.65;;;;;;;;;;6266044;22;20018;-84
2023/03/20 11:45:58;;;;;;;22.45;7.95;;;;;;;;;;6268045;22;20107;-84
2023/03/20 11:48:34;;;;;;;19.73;7.65;;;;;;;;;;6268200;22;20036;-84
2023/03/20 11:51:13;;;;;;;19.42;7.57;;;;;;;;;;6268364;22;20024;-84
2023/03/20 11:53:40;;;;;;;23.98;8.65;;;;;;;;;;6266010;22;20024;-84
2023/03/20 11:56:27;;;;;;;16.20;8.38;;;;;;;;;;6266681;22;20024;-83
2023/03/20 11:58:58;;;;;;;20.38;8.52;;;;;;;;;;6265404;22;20038;-85
2023/03/20 12:01:26;;;;;;;22.92;8.93;;;;;;;;;;6267414;22;20024;-84
2023/03/20 12:04:03;;;;;;;16.45;8.43;;;;;;;;;;6240144;22;20447;-84
2023/03/20 12:06:40;;;;;;;22.50;8.98;;;;;;;;;;6267727;22;20843;-84
2023/03/20 12:09:19;;;;;;;21.63;9.35;;;;;;;;;;6268806;22;20052;-84
2023/03/20 12:11:51;;;;;;;21.90;9.05;;;;;;;;;;6240730;22;20100;-84
2023/03/20 12:14:25;;;;;;;20.80;8.93;;;;;;;;;;6266734;22;20055;-85
2023/03/20 12:16:55;;;;;;;17.30;8.70;;;;;;;;;;6267822;22;20138;-84
2023/03/20 12:19:33;;;;;;;23.17;8.80;;;;;;;;;;6268605;22;20857;-85
2023/03/20 12:22:08;;;;;;;23.05;8.38;;;;;;;;;;6240796;22;20024;-84
2023/03/20 12:24:52;;;;;;;18.52;8.43;;;;;;;;;;6267936;22;20456;-84
2023/03/20 12:27:32;;;;;;;21.45;9.52;;;;;;;;;;6268216;22;20024;-84
2023/03/20 12:30:03;;;;;;;23.85;10.00;;;;;;;;;;6267586;22;20217;-84
2023/03/20 12:32:35;;;;;;;20.90;10.10;;;;;;;;;;6240460;22;20020;-84
2023/03/20 12:35:26;;;;;;;18.15;9.38;;;;;;;;;;6267135;22;20020;-84
2023/03/20 12:37:58;;;;;;;25.98;10.38;;;;;;;;;;6266788;22;20103;-84
2023/03/20 12:41:08;;;;;;;;;;;;;;;;;;;;;
2023/03/20 12:44:02;;;;;;;21.17;10.48;;;;;;;;;;6273693;22;20008;-82
2023/03/20 12:46:34;;;;;;;26.90;11.27;;;;;;;;;;6269241;22;20028;-85
2023/03/20 12:49:14;;;;;;;24.42;10.38;;;;;;;;;;6277132;22;20878;-85
2023/03/20 12:52:04;;;;;;;18.70;9.85;;;;;;;;;;6264352;22;20028;-85
2023/03/20 12:54:54;;;;;;;20.75;10.20;;;;;;;;;;6266458;22;20607;-85
2023/03/20 12:57:56;;;;;;;24.13;9.98;;;;;;;;;;6269620;22;20059;-85
2023/03/20 13:00:29;;;;;;;25.75;11.25;;;;;;;;;;6218173;22;20031;-85
2023/03/20 13:03:35;;;;;;;23.02;10.77;;;;;;;;;;6265879;22;20028;-86
2023/03/20 13:06:16;;;;;;;21.92;10.25;;;;;;;;;;6268389;22;20505;-86
2023/03/20 13:08:48;;;;;;;20.48;10.48;;;;;;;;;;6270498;22;20024;-85
2023/03/20 13:12:13;;;;;;;23.17;9.63;;;;;;;;;;6234387;22;20020;-86
2023/03/20 13:14:50;;;;;;;28.50;10.05;;;;;;;;;;6175236;23;20026;-87
2023/03/20 13:17:41;;;;;;;17.80;9.55;;;;;;;;;;6252161;22;20035;-87
2023/03/20 13:20:26;;;;;;;21.10;10.02;;;;;;;;;;6267657;22;20102;-85
2023/03/20 13:23:16;;;;;;;26.75;10.38;;;;;;;;;;6265673;22;20031;-86
2023/03/20 13:26:02;;;;;;;22.33;10.57;;;;;;;;;;6236665;22;20016;-85
2023/03/20 13:28:59;;;;;;;22.13;10.75;;;;;;;;;;6241865;22;20031;-85
2023/03/20 13:32:01;;;;;;;21.80;10.32;;;;;;;;;;6266598;22;20488;-83
2023/03/20 13:34:35;;;;;;;25.27;11.00;;;;;;;;;;6267606;22;20035;-85
2023/03/20 13:37:22;;;;;;;27.60;11.77;;;;;;;;;;6244193;22;20036;-85
2023/03/20 13:39:53;;;;;;;29.27;12.18;;;;;;;;;;6269911;22;20024;-85
2023/03/20 13:42:24;;;;;;;18.65;10.27;;;;;;;;;;6242517;22;20099;-87
2023/03/20 13:45:02;;;;;;;25.85;12.05;;;;;;;;;;6267168;22;20020;-87
2023/03/20 13:47:42;;;;;;;27.80;12.50;;;;;;;;;;6244117;22;20078;-86
2023/03/20 13:50:30;;;;;;;24.63;11.70;;;;;;;;;;6242317;22;20099;-88
2023/03/20 13:53:00;;;;;;;26.60;11.90;;;;;;;;;;6267155;22;20039;-87
2023/03/20 13:55:28;;;;;;;;;;;;;;;;;;6241989;22;20020;-88
2023/03/20 13:58:06;;;;;;;30.30;11.75;;;;;;;;;;6268133;22;45861;-88
2023/03/20 14:00:48;;;;;;;26.77;11.02;;;;;;;;;;6268446;22;20026;-88
2023/03/20 14:03:32;;;;;;;23.50;12.25;;;;;;;;;;6269758;22;20038;-88
2023/03/20 14:06:22;;;;;;;26.85;12.10;;;;;;;;;;6244102;22;20028;-88
2023/03/20 14:08:52;;;;;;;30.67;12.55;;;;;;;;;;6267065;22;20115;-89
2023/03/20 14:11:31;;;;;;;28.48;13.25;;;;;;;;;;6239554;22;20012;-88
2023/03/20 14:14:01;;;;;;;24.33;12.20;;;;;;;;;;6240819;22;20066;-87
2023/03/20 14:16:27;;;;;;;28.35;12.43;;;;;;;;;;6265969;22;20020;-86
2023/03/20 14:19:05;;;;;;;26.42;11.90;;;;;;;;;;6266285;22;20564;-87
2023/03/20 14:21:33;;;;;;;26.20;11.50;;;;;;;;;;6265641;22;20028;-86
2023/03/20 14:24:01;;;;;;;28.77;12.30;;;;;;;;;;6265893;22;20948;-86
2023/03/20 14:26:29;;;;;;;28.05;11.45;;;;;;;;;;6266155;22;20033;-89
2023/03/20 14:28:56;;;;;;;24.80;11.80;;;;;;;;;;6265339;22;20059;-88
2023/03/20 14:31:24;;;;;;;29.40;11.13;;;;;;;;;;6265847;22;20028;-89
2023/03/20 14:34:13;;;;;;;27.80;12.57;;;;;;;;;;6237442;22;20449;-88
2023/03/20 14:36:39;;;;;;;28.33;12.63;;;;;;;;;;6263985;22;20035;-86
2023/03/20 14:39:13;;;;;;;28.30;12.60;;;;;;;;;;6267159;22;20034;-86
2023/03/20 14:41:54;;;;;;;24.05;12.40;;;;;;;;;;6266643;22;20028;-87
2023/03/20 14:44:21;;;;;;;30.70;12.98;;;;;;;;;;6265620;22;20103;-88
2023/03/20 14:46:52;;;;;;;26.40;12.27;;;;;;;;;;6242232;22;20031;-88
2023/03/20 14:49:23;;;;;;;25.85;12.60;;;;;;;;;;6240856;22;20024;-88